Gossops Green, United Kingdom
Current Conditions -  °F | °C
As of 12:50 PM on Saturday 25 Oct 2014 (Local Time) from EGKK Reporting Station
Broken Clouds Broken Clouds  
Wind Chill: 55°   Ceiling: 4000
Heat Index: 55°   Visibility: 6mi
Dew Point: 46°   Wind: 9mph
Humidity: 72%   Direction: 230°SW
Pressure: 30.09"   Gusts: NA
Location:  51.11°N, 0.22°W
Report Text: EGKK 251150Z 23008KT 9999 BKN040 13/08 Q1019
Loading
Personal Weather Stations






























Interactive Weather Map
Tropical Storm Tracking
New forecast layout! Learn more

10-Day Weather Forecast

Advertisements
Track Severe Weather on mobile